createdAt,value
2023-02-17T00:01:22.740Z,14.38
2023-02-17T00:03:50.923Z,14.95
2023-02-17T00:06:20.889Z,17.52
2023-02-17T00:08:49.007Z,18.65
2023-02-17T00:11:17.181Z,18.85
2023-02-17T00:13:45.157Z,20.13
2023-02-17T00:16:21.420Z,18.23
2023-02-17T00:18:54.130Z,17.80
2023-02-17T00:21:24.120Z,21.58
2023-02-17T00:23:51.902Z,18.60
2023-02-17T00:26:20.195Z,18.23
2023-02-17T00:28:48.253Z,17.05
2023-02-17T00:31:18.922Z,17.23
2023-02-17T00:33:46.344Z,16.48
2023-02-17T00:36:18.195Z,16.95
2023-02-17T00:38:47.013Z,16.67
2023-02-17T00:41:14.166Z,17.00
2023-02-17T00:43:41.241Z,16.30
2023-02-17T00:46:08.662Z,18.85
2023-02-17T00:48:36.054Z,18.70
2023-02-17T00:51:03.404Z,18.67
2023-02-17T00:53:30.471Z,17.58
2023-02-17T00:55:57.571Z,16.75
2023-02-17T00:58:24.856Z,17.45
2023-02-17T01:00:52.013Z,16.10
2023-02-17T01:03:19.526Z,17.45
2023-02-17T01:05:49.216Z,16.23
2023-02-17T01:08:18.280Z,15.38
2023-02-17T01:10:47.784Z,17.50
2023-02-17T01:13:16.325Z,15.90
2023-02-17T01:16:01.592Z,16.23
2023-02-17T01:18:28.778Z,16.35
2023-02-17T01:20:55.859Z,17.95
2023-02-17T01:23:22.918Z,17.60
2023-02-17T01:25:50.841Z,16.77
2023-02-17T01:28:21.845Z,16.33
2023-02-17T01:30:49.830Z,17.00
2023-02-17T01:33:17.103Z,17.35
2023-02-17T01:35:44.129Z,16.27
2023-02-17T01:38:11.209Z,15.00
2023-02-17T01:40:38.244Z,16.40
2023-02-17T01:43:12.047Z,16.65
2023-02-17T01:45:47.278Z,16.08
2023-02-17T01:48:21.876Z,15.23
2023-02-17T01:51:11.938Z,16.73
2023-02-17T01:53:54.829Z,15.63
2023-02-17T01:56:24.702Z,17.90
2023-02-17T01:58:58.280Z,16.25
2023-02-17T02:01:25.441Z,14.65
2023-02-17T02:03:53.556Z,16.20
2023-02-17T02:06:25.810Z,16.17
2023-02-17T02:09:06.270Z,15.50
2023-02-17T02:11:34.389Z,15.05
2023-02-17T02:14:04.726Z,17.48
2023-02-17T02:17:02.272Z,16.45
2023-02-17T02:20:02.541Z,17.10
2023-02-17T02:22:38.591Z,15.73
2023-02-17T02:25:08.878Z,15.30
2023-02-17T02:28:12.367Z,15.50
2023-02-17T02:30:42.442Z,16.55
2023-02-17T02:33:23.086Z,17.17
2023-02-17T02:35:59.886Z,16.35
2023-02-17T02:38:45.736Z,17.63
2023-02-17T02:41:15.663Z,15.70
2023-02-17T02:43:43.352Z,16.50
2023-02-17T02:46:10.737Z,18.80
2023-02-17T02:48:39.204Z,15.60
2023-02-17T02:51:28.688Z,18.05
2023-02-17T02:54:19.639Z,16.35
2023-02-17T02:56:46.600Z,15.98
2023-02-17T02:59:41.907Z,16.95
2023-02-17T03:02:33.163Z,15.82
2023-02-17T03:05:34.345Z,17.15
2023-02-17T03:08:23.716Z,17.40
2023-02-17T03:10:54.467Z,16.75
2023-02-17T03:13:22.256Z,16.92
2023-02-17T03:15:49.930Z,16.38
2023-02-17T03:18:17.556Z,16.70
2023-02-17T03:20:54.429Z,16.85
2023-02-17T03:23:21.906Z,16.80
2023-02-17T03:25:49.996Z,17.20
2023-02-17T03:28:17.093Z,17.30
2023-02-17T03:30:44.201Z,17.85
2023-02-17T03:33:11.269Z,16.95
2023-02-17T03:35:38.444Z,19.02
2023-02-17T03:38:05.487Z,16.77
2023-02-17T03:40:32.638Z,17.23
2023-02-17T03:42:59.817Z,16.77
2023-02-17T03:45:26.851Z,16.88
2023-02-17T03:47:53.875Z,16.65
2023-02-17T03:50:20.898Z,16.63
2023-02-17T03:52:47.904Z,17.90
2023-02-17T03:55:14.953Z,16.60
2023-02-17T03:57:41.964Z,17.50
2023-02-17T04:00:09.645Z,16.92
2023-02-17T04:02:36.631Z,17.95
2023-02-17T04:05:04.104Z,15.75
2023-02-17T04:07:31.155Z,18.25
2023-02-17T04:09:58.195Z,15.85
2023-02-17T04:12:25.204Z,17.90
2023-02-17T04:14:52.216Z,17.80
2023-02-17T04:17:19.237Z,17.27
2023-02-17T04:19:46.302Z,18.17
2023-02-17T04:22:13.312Z,16.25
2023-02-17T04:24:40.427Z,17.35
2023-02-17T04:27:07.778Z,17.58
2023-02-17T04:29:34.981Z,16.00
2023-02-17T04:32:02.532Z,15.35
2023-02-17T04:34:29.673Z,16.85
2023-02-17T04:36:56.666Z,16.25
2023-02-17T04:39:23.694Z,16.63
2023-02-17T04:41:50.793Z,16.52
2023-02-17T04:44:17.842Z,17.58
2023-02-17T04:46:44.889Z,16.70
2023-02-17T04:49:11.934Z,17.40
2023-02-17T04:51:38.999Z,16.10
2023-02-17T04:54:06.036Z,17.35
2023-02-17T04:56:33.029Z,16.45
2023-02-17T04:59:00.074Z,15.68
2023-02-17T05:01:27.149Z,16.25
2023-02-17T05:03:54.165Z,17.55
2023-02-17T05:06:21.171Z,14.45
2023-02-17T05:08:48.538Z,15.50
2023-02-17T05:11:15.555Z,14.55
2023-02-17T05:13:42.675Z,12.82
2023-02-17T05:16:09.868Z,15.82
2023-02-17T05:18:36.949Z,14.07
2023-02-17T05:21:04.225Z,14.75
2023-02-17T05:23:31.296Z,15.43
2023-02-17T05:25:58.374Z,14.80
2023-02-17T05:28:25.368Z,14.55
2023-02-17T05:30:52.458Z,12.02
2023-02-17T05:33:19.509Z,12.80
2023-02-17T05:35:46.624Z,12.77
2023-02-17T05:38:13.638Z,14.05
2023-02-17T05:40:40.697Z,13.18
2023-02-17T05:43:07.714Z,13.50
2023-02-17T05:45:34.780Z,13.32
2023-02-17T05:48:01.795Z,13.27
2023-02-17T05:50:28.826Z,14.65
2023-02-17T05:52:55.892Z,13.68
2023-02-17T05:55:22.991Z,12.77
2023-02-17T05:57:50.013Z,12.32
2023-02-17T06:00:17.463Z,13.90
2023-02-17T06:02:44.484Z,12.75
2023-02-17T06:05:11.751Z,12.50
2023-02-17T06:07:39.221Z,12.80
2023-02-17T06:10:07.075Z,12.38
2023-02-17T06:12:34.237Z,12.80
2023-02-17T06:15:01.311Z,12.95
2023-02-17T06:17:28.565Z,11.95
2023-02-17T06:19:55.509Z,12.05
2023-02-17T06:22:22.552Z,11.15
2023-02-17T06:24:49.654Z,12.52
2023-02-17T06:27:16.752Z,12.90
2023-02-17T06:29:44.647Z,12.75
2023-02-17T06:32:11.673Z,11.80
2023-02-17T06:34:38.853Z,12.38
2023-02-17T06:37:06.086Z,11.48
2023-02-17T06:39:33.161Z,18.40
2023-02-17T06:42:00.231Z,11.40
2023-02-17T06:44:27.713Z,13.32
2023-02-17T06:46:54.713Z,12.27
2023-02-17T06:49:21.750Z,12.35
2023-02-17T06:51:48.792Z,11.23
2023-02-17T06:54:15.888Z,10.82
2023-02-17T06:56:43.131Z,11.30
2023-02-17T06:59:10.104Z,10.52
2023-02-17T07:01:37.353Z,10.63
2023-02-17T07:04:04.617Z,11.20
2023-02-17T07:06:32.068Z,11.23
2023-02-17T07:08:59.154Z,10.18
2023-02-17T07:11:27.365Z,10.02
2023-02-17T07:13:54.480Z,10.07
2023-02-17T07:16:21.526Z,9.57
2023-02-17T07:18:48.580Z,9.77
2023-02-17T07:21:15.643Z,10.45
2023-02-17T07:23:42.668Z,10.73
2023-02-17T07:26:11.668Z,10.60
2023-02-17T07:28:39.806Z,10.00
2023-02-17T07:31:09.357Z,9.30
2023-02-17T07:33:36.891Z,9.07
2023-02-17T07:36:15.602Z,8.73
2023-02-17T07:38:43.636Z,8.80
2023-02-17T07:41:17.465Z,9.93
2023-02-17T07:43:45.716Z,8.93
2023-02-17T07:46:13.724Z,8.35
2023-02-17T07:48:41.013Z,9.70
2023-02-17T07:51:14.392Z,9.32
2023-02-17T07:53:41.447Z,8.60
2023-02-17T07:56:14.289Z,8.88
2023-02-17T07:58:43.671Z,9.75
2023-02-17T08:01:15.962Z,9.57
2023-02-17T08:03:43.513Z,8.40
2023-02-17T08:06:16.030Z,8.25
2023-02-17T08:09:01.932Z,8.65
2023-02-17T08:11:49.760Z,9.77
2023-02-17T08:14:17.506Z,8.77
2023-02-17T08:16:44.593Z,8.52
2023-02-17T08:19:11.729Z,8.65
2023-02-17T08:21:39.188Z,8.57
2023-02-17T08:24:06.641Z,9.13
2023-02-17T08:26:33.774Z,8.20
2023-02-17T08:29:00.778Z,7.50
2023-02-17T08:31:33.150Z,8.13
2023-02-17T08:34:01.994Z,7.97
2023-02-17T08:36:29.851Z,7.15
2023-02-17T08:38:57.181Z,7.15
2023-02-17T08:41:36.340Z,7.90
2023-02-17T08:44:08.967Z,7.88
2023-02-17T08:46:37.677Z,7.15
2023-02-17T08:49:06.197Z,7.10
2023-02-17T08:51:33.738Z,6.97
2023-02-17T08:54:01.960Z,8.27
2023-02-17T08:56:30.124Z,8.18
2023-02-17T08:58:57.289Z,8.45
2023-02-17T09:01:24.951Z,7.32
2023-02-17T09:03:54.467Z,8.02
2023-02-17T09:06:21.810Z,7.40
2023-02-17T09:08:49.434Z,7.32
2023-02-17T09:11:19.197Z,7.28
2023-02-17T09:13:46.483Z,8.68
2023-02-17T09:16:13.999Z,7.45
2023-02-17T09:18:41.226Z,7.88
2023-02-17T09:21:10.871Z,7.72
2023-02-17T09:23:38.307Z,8.18
2023-02-17T09:26:08.506Z,6.40
2023-02-17T09:28:36.560Z,7.63
2023-02-17T09:31:13.746Z,7.18
2023-02-17T09:33:44.267Z,6.70
2023-02-17T09:36:14.209Z,8.25
2023-02-17T09:38:42.277Z,6.82
2023-02-17T09:41:53.479Z,7.45
2023-02-17T09:44:26.768Z,7.10
2023-02-17T09:47:10.206Z,9.52
2023-02-17T09:49:45.213Z,7.60
2023-02-17T09:52:26.330Z,7.50
2023-02-17T09:55:05.706Z,7.43
2023-02-17T09:57:50.386Z,8.20
2023-02-17T10:00:25.642Z,7.55
2023-02-17T10:02:52.793Z,8.15
2023-02-17T10:05:24.527Z,8.70
2023-02-17T10:07:57.222Z,7.22
2023-02-17T10:10:29.262Z,7.10
2023-02-17T10:12:59.969Z,6.90
2023-02-17T10:15:31.948Z,7.50
2023-02-17T10:18:37.369Z,6.80
2023-02-17T10:21:25.156Z,8.27
2023-02-17T10:23:52.634Z,8.00
2023-02-17T10:26:39.464Z,7.45
2023-02-17T10:29:13.820Z,6.97
2023-02-17T10:32:08.665Z,6.47
2023-02-17T10:34:48.956Z,7.10
2023-02-17T10:37:47.492Z,6.25
2023-02-17T10:40:25.529Z,6.65
2023-02-17T10:42:56.846Z,5.65
2023-02-17T10:45:35.326Z,6.18
2023-02-17T10:48:12.569Z,4.97
2023-02-17T10:50:42.798Z,5.78
2023-02-17T10:53:17.708Z,5.20
2023-02-17T10:56:07.750Z,5.63
2023-02-17T10:58:59.640Z,5.65
2023-02-17T11:01:28.395Z,5.53
2023-02-17T11:04:05.069Z,5.18
2023-02-17T11:06:33.656Z,5.82
2023-02-17T11:09:08.525Z,5.93
2023-02-17T11:11:37.117Z,5.80
2023-02-17T11:14:13.805Z,5.70
2023-02-17T11:16:58.205Z,5.35
2023-02-17T11:19:27.551Z,6.25
2023-02-17T11:21:58.618Z,6.70
2023-02-17T11:24:27.769Z,6.20
2023-02-17T11:27:09.811Z,6.25
2023-02-17T11:29:37.685Z,5.85
2023-02-17T11:32:09.327Z,5.28
2023-02-17T11:34:39.288Z,6.30
2023-02-17T11:37:12.307Z,4.82
2023-02-17T11:39:45.600Z,4.20
2023-02-17T11:42:30.854Z,4.15
2023-02-17T11:44:59.985Z,4.13
2023-02-17T11:47:37.766Z,4.53
2023-02-17T11:50:40.827Z,4.53
2023-02-17T11:53:34.282Z,4.55
2023-02-17T11:56:06.676Z,4.05
2023-02-17T11:58:40.238Z,4.70
2023-02-17T12:01:18.276Z,3.80
2023-02-17T12:04:21.831Z,3.95
2023-02-17T12:07:07.211Z,3.90
2023-02-17T12:10:03.005Z,3.20
2023-02-17T12:12:38.756Z,4.00
2023-02-17T12:15:51.020Z,4.70
2023-02-17T12:18:34.109Z,3.80
2023-02-17T12:21:37.225Z,3.47
2023-02-17T12:24:16.269Z,3.20
2023-02-17T12:27:04.463Z,3.42
2023-02-17T12:29:43.885Z,3.35
2023-02-17T12:32:35.915Z,3.13
2023-02-17T12:35:30.677Z,3.40
2023-02-17T12:38:02.655Z,3.40
2023-02-17T12:40:52.953Z,3.15
2023-02-17T12:43:46.248Z,3.30
2023-02-17T12:46:35.349Z,2.95
2023-02-17T12:49:13.944Z,2.60
2023-02-17T12:51:53.259Z,2.63
2023-02-17T12:54:38.622Z,2.90
2023-02-17T12:57:17.422Z,3.05
2023-02-17T12:59:50.536Z,3.22
2023-02-17T13:02:28.361Z,3.38
2023-02-17T13:05:01.030Z,3.10
2023-02-17T13:07:46.376Z,2.90
2023-02-17T13:10:42.912Z,2.47
2023-02-17T13:13:29.937Z,2.67
2023-02-17T13:16:07.977Z,2.47
2023-02-17T13:18:41.042Z,2.70
2023-02-17T13:21:25.081Z,2.70
2023-02-17T13:24:34.832Z,3.85
2023-02-17T13:27:22.627Z,2.75
2023-02-17T13:30:06.273Z,2.70
2023-02-17T13:32:36.292Z,3.10
2023-02-17T13:35:26.076Z,2.55
2023-02-17T13:37:53.713Z,2.65
2023-02-17T13:40:20.683Z,2.90
2023-02-17T13:42:56.149Z,3.00
2023-02-17T13:45:33.925Z,2.42
2023-02-17T13:48:31.984Z,2.78
2023-02-17T13:51:07.680Z,2.60
2023-02-17T13:53:38.065Z,2.90
2023-02-17T13:56:07.333Z,2.65
2023-02-17T13:58:42.417Z,2.58
2023-02-17T14:01:20.857Z,2.88
2023-02-17T14:03:56.550Z,2.60
2023-02-17T14:06:36.332Z,3.70
2023-02-17T14:09:26.271Z,3.50
2023-02-17T14:11:55.653Z,2.95
2023-02-17T14:14:27.157Z,3.13
2023-02-17T14:17:03.284Z,2.70
2023-02-17T14:19:42.293Z,3.00
2023-02-17T14:22:29.214Z,3.47
2023-02-17T14:25:11.608Z,3.10
2023-02-17T14:27:50.390Z,2.90
2023-02-17T14:30:37.266Z,2.78
2023-02-17T14:33:18.946Z,2.90
2023-02-17T14:36:00.640Z,2.92
2023-02-17T14:38:29.443Z,2.50
2023-02-17T14:40:57.842Z,2.80
2023-02-17T14:43:25.736Z,3.72
2023-02-17T14:45:53.570Z,2.63
2023-02-17T14:48:21.380Z,2.95
2023-02-17T14:50:49.765Z,3.40
2023-02-17T14:53:30.052Z,2.38
2023-02-17T14:56:07.665Z,2.70
2023-02-17T14:58:35.483Z,2.35
2023-02-17T15:01:03.245Z,3.13
2023-02-17T15:03:30.820Z,3.70
2023-02-17T15:05:58.491Z,2.72
2023-02-17T15:08:32.413Z,2.97
2023-02-17T15:11:00.065Z,2.20
2023-02-17T15:13:27.245Z,2.33
2023-02-17T15:15:55.050Z,2.58
2023-02-17T15:18:22.543Z,2.10
2023-02-17T15:20:51.902Z,2.20
2023-02-17T15:23:21.840Z,2.58
2023-02-17T15:25:50.269Z,2.20
2023-02-17T15:28:21.285Z,2.72
2023-02-17T15:30:56.180Z,2.22
2023-02-17T15:33:25.498Z,2.08
2023-02-17T15:35:54.658Z,2.42
2023-02-17T15:38:23.969Z,2.30
2023-02-17T15:40:51.987Z,2.65
2023-02-17T15:43:23.485Z,2.83
2023-02-17T15:45:50.974Z,2.85
2023-02-17T15:48:27.549Z,2.40
2023-02-17T15:50:55.742Z,2.17
2023-02-17T15:53:22.987Z,2.42
2023-02-17T15:55:50.816Z,2.28
2023-02-17T15:58:21.869Z,2.17
2023-02-17T16:00:50.566Z,2.65
2023-02-17T16:03:18.807Z,2.20
2023-02-17T16:05:46.465Z,2.92
2023-02-17T16:08:13.674Z,2.38
2023-02-17T16:10:42.694Z,2.47
2023-02-17T16:13:14.816Z,2.45
2023-02-17T16:15:42.852Z,2.33
2023-02-17T16:18:24.790Z,2.63
2023-02-17T16:20:52.867Z,2.63
2023-02-17T16:23:20.504Z,2.75
2023-02-17T16:25:48.874Z,2.78
2023-02-17T16:28:19.410Z,2.53
2023-02-17T16:30:49.938Z,3.60
2023-02-17T16:33:18.395Z,2.55
2023-02-17T16:35:46.483Z,3.13
2023-02-17T16:38:23.104Z,2.78
2023-02-17T16:40:53.768Z,2.67
2023-02-17T16:43:28.394Z,3.08
2023-02-17T16:46:02.885Z,2.40
2023-02-17T16:48:33.299Z,3.50
2023-02-17T16:51:00.919Z,3.17
2023-02-17T16:53:29.058Z,3.10
2023-02-17T16:55:59.625Z,3.38
2023-02-17T16:58:28.112Z,3.08
2023-02-17T17:00:58.056Z,2.50
2023-02-17T17:03:25.776Z,2.40
2023-02-17T17:05:54.134Z,2.40
2023-02-17T17:08:22.427Z,2.55
2023-02-17T17:10:49.812Z,2.20
2023-02-17T17:13:17.791Z,2.42
2023-02-17T17:15:46.509Z,2.60
2023-02-17T17:18:22.766Z,2.00
2023-02-17T17:20:51.211Z,2.30
2023-02-17T17:23:20.276Z,1.75
2023-02-17T17:25:48.828Z,1.83
2023-02-17T17:28:18.998Z,1.85
2023-02-17T17:30:47.654Z,2.30
2023-02-17T17:33:15.944Z,1.83
2023-02-17T17:35:44.423Z,2.10
2023-02-17T17:38:20.227Z,2.40
2023-02-17T17:40:51.495Z,1.90
2023-02-17T17:43:21.842Z,1.85
2023-02-17T17:45:50.312Z,2.05
2023-02-17T17:48:18.555Z,1.73
2023-02-17T17:50:51.327Z,2.08
2023-02-17T17:53:19.331Z,1.88
2023-02-17T17:55:48.579Z,1.92
2023-02-17T17:58:17.851Z,2.15
2023-02-17T18:00:45.657Z,2.75
2023-02-17T18:03:13.273Z,2.13
2023-02-17T18:05:42.615Z,2.30
2023-02-17T18:08:10.640Z,2.60
2023-02-17T18:10:40.304Z,1.90
2023-02-17T18:13:10.140Z,2.50
2023-02-17T18:15:38.389Z,2.78
2023-02-17T18:18:07.061Z,2.95
2023-02-17T18:20:34.909Z,2.55
2023-02-17T18:23:02.833Z,3.17
2023-02-17T18:25:30.988Z,3.10
2023-02-17T18:27:59.432Z,3.03
2023-02-17T18:30:28.063Z,2.63
2023-02-17T18:32:57.377Z,2.58
2023-02-17T18:35:25.170Z,2.88
2023-02-17T18:37:53.266Z,2.95
2023-02-17T18:40:22.578Z,3.10
2023-02-17T18:42:50.794Z,3.00
2023-02-17T18:45:18.994Z,2.53
2023-02-17T18:47:46.923Z,2.88
2023-02-17T18:50:16.481Z,2.83
2023-02-17T18:52:45.554Z,3.40
2023-02-17T18:55:14.261Z,2.95
2023-02-17T18:57:45.407Z,2.40
2023-02-17T19:00:17.585Z,2.80
2023-02-17T19:02:45.575Z,3.22
2023-02-17T19:05:13.788Z,3.00
2023-02-17T19:07:41.704Z,3.10
2023-02-17T19:10:10.799Z,2.80
2023-02-17T19:12:41.073Z,2.78
2023-02-17T19:15:09.096Z,2.20
2023-02-17T19:17:37.064Z,2.60
2023-02-17T19:20:08.424Z,2.40
2023-02-17T19:22:38.240Z,2.40
2023-02-17T19:25:08.467Z,2.15
2023-02-17T19:27:36.080Z,1.90
2023-02-17T19:30:04.031Z,2.55
2023-02-17T19:32:32.099Z,2.05
2023-02-17T19:34:59.902Z,1.98
2023-02-17T19:37:28.535Z,2.20
2023-02-17T19:39:57.763Z,2.22
2023-02-17T19:42:25.201Z,2.45
2023-02-17T19:44:52.983Z,2.03
2023-02-17T19:47:21.113Z,2.20
2023-02-17T19:49:49.193Z,2.10
2023-02-17T19:52:18.801Z,2.20
2023-02-17T19:54:49.483Z,2.40
2023-02-17T19:57:18.961Z,2.28
2023-02-17T19:59:46.863Z,2.28
2023-02-17T20:02:16.665Z,2.42
2023-02-17T20:04:45.736Z,2.50
2023-02-17T20:07:15.554Z,2.63
2023-02-17T20:09:43.899Z,3.25
2023-02-17T20:12:11.580Z,3.50
2023-02-17T20:14:39.731Z,2.80
2023-02-17T20:17:07.742Z,2.33
2023-02-17T20:19:41.864Z,2.42
2023-02-17T20:22:10.124Z,3.30
2023-02-17T20:24:39.333Z,2.40
2023-02-17T20:27:07.419Z,2.20
2023-02-17T20:29:37.050Z,1.80
2023-02-17T20:32:09.879Z,2.28
2023-02-17T20:34:42.263Z,2.50
2023-02-17T20:37:15.523Z,2.15
2023-02-17T20:39:44.967Z,1.67
2023-02-17T20:42:14.955Z,2.10
2023-02-17T20:44:43.542Z,1.58
2023-02-17T20:47:12.764Z,1.92
2023-02-17T20:49:40.452Z,1.90
2023-02-17T20:52:09.690Z,1.80
2023-02-17T20:54:39.704Z,1.90
2023-02-17T20:57:15.330Z,2.05
2023-02-17T20:59:43.161Z,2.00
2023-02-17T21:02:12.043Z,1.90
2023-02-17T21:04:41.714Z,2.10
2023-02-17T21:07:13.678Z,1.98
2023-02-17T21:09:41.443Z,1.80
2023-02-17T21:12:09.586Z,1.65
2023-02-17T21:14:37.450Z,1.52
2023-02-17T21:17:05.467Z,1.42
2023-02-17T21:19:33.885Z,1.67
2023-02-17T21:22:01.329Z,1.77
2023-02-17T21:24:29.083Z,1.60
2023-02-17T21:26:56.645Z,1.60
2023-02-17T21:29:25.539Z,1.70
2023-02-17T21:31:53.895Z,1.60
2023-02-17T21:34:21.177Z,1.90
2023-02-17T21:36:48.449Z,1.50
2023-02-17T21:39:16.077Z,1.60
2023-02-17T21:41:43.426Z,2.28
2023-02-17T21:44:32.854Z,1.60
2023-02-17T21:47:00.144Z,1.40
2023-02-17T21:49:27.176Z,1.40
2023-02-17T21:51:54.740Z,1.10
2023-02-17T21:54:22.372Z,1.85
2023-02-17T21:56:49.863Z,1.60
2023-02-17T21:59:17.153Z,1.30
2023-02-17T22:01:44.223Z,1.70
2023-02-17T22:04:11.762Z,1.55
2023-02-17T22:06:42.332Z,1.15
2023-02-17T22:09:12.022Z,1.63
2023-02-17T22:11:41.985Z,1.70
2023-02-17T22:14:13.708Z,1.38
2023-02-17T22:16:41.224Z,1.00
2023-02-17T22:19:10.980Z,1.17
2023-02-17T22:21:39.000Z,1.20
2023-02-17T22:24:06.401Z,1.10
2023-02-17T22:26:33.499Z,1.30
2023-02-17T22:29:00.730Z,1.00
2023-02-17T22:31:29.746Z,1.15
2023-02-17T22:33:58.793Z,1.10
2023-02-17T22:36:27.779Z,1.10
2023-02-17T22:38:55.308Z,1.10
2023-02-17T22:41:24.554Z,1.20
2023-02-17T22:43:52.331Z,1.00
2023-02-17T22:46:21.883Z,0.80
2023-02-17T22:48:51.429Z,1.27
2023-02-17T22:51:21.314Z,1.50
2023-02-17T22:53:49.125Z,1.13
2023-02-17T22:56:16.362Z,1.15
2023-02-17T22:58:43.442Z,1.20
2023-02-17T23:01:14.006Z,1.00
2023-02-17T23:03:41.643Z,0.93
2023-02-17T23:06:18.186Z,1.35
2023-02-17T23:08:46.216Z,1.02
2023-02-17T23:11:15.547Z,1.30
2023-02-17T23:13:44.066Z,1.02
2023-02-17T23:16:18.468Z,0.95
2023-02-17T23:18:45.547Z,1.20
2023-02-17T23:21:13.538Z,1.17
2023-02-17T23:23:40.593Z,1.00
2023-02-17T23:26:08.000Z,1.10
2023-02-17T23:28:35.305Z,0.70
2023-02-17T23:31:02.404Z,1.00
2023-02-17T23:33:29.418Z,0.93
2023-02-17T23:35:56.479Z,1.10
2023-02-17T23:38:23.529Z,1.13
2023-02-17T23:40:52.472Z,0.80
2023-02-17T23:43:20.488Z,0.88
2023-02-17T23:45:47.545Z,0.90
2023-02-17T23:48:15.795Z,0.90
2023-02-17T23:50:43.447Z,1.05
2023-02-17T23:53:10.562Z,0.68
2023-02-17T23:55:37.557Z,0.75
2023-02-17T23:58:04.681Z,0.90
